Flight Track Log - Related Links

Times and Time Zones

All times are in EDT time to prevent confusion due to time zone crossing. See the CSN6877 flight status page for this flight to view local times or setup timezone preferences in your user account.

Time Position Orientation Groundspeed Altitude Reporting Facility
EDT Latitude Longitude Course Direction KTS MPH feet Rate Location/Type
Tue 10:10:00 PM 43.8481 87.2917 246° West  Level Estimated
Tue 10:11:00 PM 43.7887 87.1095 246° West  Level Estimated
Tue 10:12:00 PM 43.7291 86.9277 246° West  Level Estimated
Tue 10:13:00 PM 43.6692 86.7462 246° West  Level Estimated
Tue 10:14:00 PM 43.6090 86.5651 245° Southwest  Level Estimated
Tue 10:15:00 PM 43.5485 86.3844 245° Southwest  Level Estimated
Tue 10:16:00 PM 43.4877 86.2040 245° Southwest  Level Estimated
Tue 10:17:00 PM 43.4267 86.0240 245° Southwest  Level Estimated
Tue 10:18:00 PM 43.3654 85.8444 245° Southwest  Level Estimated
Tue 10:19:00 PM 43.3037 85.6651 245° Southwest  Level Estimated
Tue 10:20:00 PM 43.2419 85.4862 245° Southwest  Level Estimated
Tue 10:21:00 PM 43.1797 85.3076 245° Southwest  Level Estimated
Tue 10:22:00 PM 43.1172 85.1294 244° Southwest  Level Estimated
Tue 10:23:00 PM 43.0545 84.9516 244° Southwest  Level Estimated
Tue 10:24:00 PM 42.9915 84.7742 244° Southwest  Level Estimated
Tue 10:25:00 PM 42.9282 84.5971 244° Southwest  Level Estimated
Tue 10:26:00 PM 42.8647 84.4203 244° Southwest  Level Estimated
Tue 10:27:00 PM 42.8009 84.2440 244° Southwest  Level Estimated
Tue 10:28:00 PM 42.7368 84.0680 244° Southwest  Level Estimated
Tue 10:29:00 PM 42.6724 83.8923 244° Southwest  Level Estimated
Tue 10:30:00 PM 42.6078 83.7171 243° Southwest  Level Estimated
Tue 10:31:00 PM 42.5429 83.5422 243° Southwest  Level Estimated
Tue 10:32:00 PM 42.4778 83.3676 243° Southwest  Level Estimated
Tue 10:33:00 PM 42.4123 83.1934 243° Southwest  Level Estimated
Tue 10:34:00 PM 42.3467 83.0196 243° Southwest  Level Estimated
Tue 10:35:00 PM 42.2807 82.8461 243° Southwest  Level Estimated
Tue 10:36:00 PM 42.2145 82.6730 243° Southwest  Level Estimated
Tue 10:37:00 PM 42.1480 82.5003 243° Southwest  Level Estimated
Tue 10:38:00 PM 42.0813 82.3279 243° Southwest  Level Estimated
Tue 10:39:00 PM 42.0143 82.1560 242° Southwest  Level Estimated
Tue 10:40:00 PM 41.9471 81.9843 242° Southwest  Level Estimated
Tue 10:41:00 PM 41.8796 81.8130 242° Southwest  Level Estimated
Tue 10:42:00 PM 41.8119 81.6421 242° Southwest  Level Estimated
Tue 10:43:00 PM 41.7439 81.4716 242° Southwest  Level Estimated
Tue 10:44:00 PM 41.6756 81.3014 242° Southwest  Level Estimated
Tue 10:45:00 PM 41.6071 81.1315 242° Southwest  Level Estimated
Tue 10:46:00 PM 41.5384 80.9621 242° Southwest  Level Estimated
Tue 10:47:00 PM 41.4694 80.7930 241° Southwest  Level Estimated
Tue 10:48:00 PM 41.4001 80.6242 241° Southwest  Level Estimated
Tue 10:49:00 PM 41.3306 80.4558 241° Southwest  Level Estimated
Tue 10:50:00 PM 41.2625 80.2917 241° Southwest  Level Estimated
Tue 10:51:00 PM 41.2625 80.2917 270° West  Level Estimated
Tue 10:52:00 PM 41.2625 80.2917 270° West  Level Estimated
Tue 10:53:00 PM 41.2625 80.2917 270° West  Level Estimated
Tue 10:54:00 PM 41.2625 80.2917 270° West  Level Estimated
Tue 10:55:00 PM 41.2625 80.2917 270° West  Level Estimated
Tue 10:56:00 PM 41.2625 80.2917 270° West  Level Estimated
Tue 10:57:00 PM 41.2625 80.2917 270° West  Level Estimated
Tue 10:58:00 PM 41.2625 80.2917 270° West  Level Estimated
Tue 10:59:00 PM 41.2625 80.2917 270° West  Level Estimated
Tue 11:00:00 PM 41.2625 80.2917 270° West  Level Estimated
Tue 11:01:00 PM 41.2625 80.2917 270° West  Level Estimated
Tue 11:02:00 PM 41.2625 80.2917 270° West  Level Estimated

Login

Don't have an account? Register now (free) for customized features, flight alerts, and more!